createdAt,value
2023-03-06T00:00:36.532Z,8.30
2023-03-06T00:03:05.644Z,7.20
2023-03-06T00:05:33.517Z,7.50
2023-03-06T00:08:09.366Z,7.30
2023-03-06T00:10:37.315Z,7.77
2023-03-06T00:13:08.429Z,7.87
2023-03-06T00:15:37.120Z,7.90
2023-03-06T00:18:06.971Z,7.33
2023-03-06T00:20:36.260Z,6.27
2023-03-06T00:23:04.170Z,6.87
2023-03-06T00:25:32.479Z,8.43
2023-03-06T00:28:00.878Z,7.13
2023-03-06T00:30:32.864Z,6.90
2023-03-06T00:33:04.518Z,7.27
2023-03-06T00:35:32.705Z,8.03
2023-03-06T00:38:02.726Z,8.10
2023-03-06T00:40:30.888Z,7.10
2023-03-06T00:43:02.770Z,8.00
2023-03-06T00:45:31.976Z,6.83
2023-03-06T00:47:59.991Z,7.40
2023-03-06T00:50:28.381Z,7.73
2023-03-06T00:53:00.534Z,7.30
2023-03-06T00:55:29.330Z,7.20
2023-03-06T00:57:59.806Z,6.70
2023-03-06T01:00:30.294Z,6.90
2023-03-06T01:02:59.633Z,6.97
2023-03-06T01:05:29.801Z,6.20
2023-03-06T01:08:01.421Z,8.70
2023-03-06T01:10:32.414Z,5.97
2023-03-06T01:13:00.293Z,6.73
2023-03-06T01:15:28.574Z,6.60
2023-03-06T01:17:59.439Z,6.70
2023-03-06T01:20:41.607Z,6.30
2023-03-06T01:23:12.154Z,6.83
2023-03-06T01:25:41.196Z,6.50
2023-03-06T01:28:17.321Z,5.73
2023-03-06T01:30:48.194Z,6.63
2023-03-06T01:33:16.083Z,6.90
2023-03-06T01:35:46.943Z,7.23
2023-03-06T01:38:16.991Z,6.40
2023-03-06T01:40:46.270Z,5.80
2023-03-06T01:43:31.346Z,7.47
2023-03-06T01:46:47.738Z,6.30
2023-03-06T01:49:28.536Z,6.00
2023-03-06T01:52:05.450Z,5.63
2023-03-06T01:54:35.665Z,6.20
2023-03-06T01:57:05.884Z,5.67
2023-03-06T01:59:36.730Z,5.13
2023-03-06T02:02:05.560Z,7.50
2023-03-06T02:04:34.004Z,5.93
2023-03-06T02:07:05.644Z,6.30
2023-03-06T02:09:34.974Z,9.50
2023-03-06T02:12:08.273Z,8.47
2023-03-06T02:14:39.489Z,8.60
2023-03-06T02:17:12.977Z,7.00
2023-03-06T02:19:50.810Z,6.83
2023-03-06T02:22:20.334Z,6.87
2023-03-06T02:24:56.854Z,7.20
2023-03-06T02:27:26.602Z,6.40
2023-03-06T02:30:07.959Z,7.30
2023-03-06T02:32:35.718Z,6.80
2023-03-06T02:35:10.441Z,8.10
2023-03-06T02:37:38.231Z,8.23
2023-03-06T02:40:20.408Z,7.73
2023-03-06T02:42:53.350Z,7.50
2023-03-06T02:45:27.638Z,6.93
2023-03-06T02:48:00.754Z,6.90
2023-03-06T02:50:29.593Z,6.33
2023-03-06T02:52:57.402Z,7.03
2023-03-06T02:55:25.528Z,7.50
2023-03-06T02:58:01.756Z,7.43
2023-03-06T03:00:32.408Z,6.33
2023-03-06T03:03:03.229Z,7.53
2023-03-06T03:05:44.127Z,7.00
2023-03-06T03:08:12.236Z,5.40
2023-03-06T03:10:40.175Z,7.47
2023-03-06T03:13:10.720Z,5.93
2023-03-06T03:15:44.422Z,6.30
2023-03-06T03:18:13.886Z,6.07
2023-03-06T03:20:45.962Z,6.13
2023-03-06T03:23:13.937Z,6.20
2023-03-06T03:25:41.808Z,5.80
2023-03-06T03:28:11.009Z,6.77
2023-03-06T03:30:40.457Z,5.17
2023-03-06T03:33:11.245Z,5.77
2023-03-06T03:35:40.187Z,6.23
2023-03-06T03:38:13.167Z,7.63
2023-03-06T03:40:41.270Z,7.23
2023-03-06T03:43:15.728Z,6.97
2023-03-06T03:45:43.857Z,6.03
2023-03-06T03:48:11.826Z,5.73
2023-03-06T03:50:41.517Z,7.60
2023-03-06T03:53:11.380Z,6.00
2023-03-06T03:55:43.758Z,6.30
2023-03-06T03:58:17.278Z,5.73
2023-03-06T04:00:47.203Z,6.80
2023-03-06T04:03:17.891Z,6.17
2023-03-06T04:05:45.704Z,6.00
2023-03-06T04:08:17.417Z,5.20
2023-03-06T04:10:45.608Z,6.27
2023-03-06T04:13:18.072Z,6.03
2023-03-06T04:15:47.224Z,5.37
2023-03-06T04:18:18.166Z,6.53
2023-03-06T04:20:46.065Z,6.10
2023-03-06T04:23:16.948Z,7.23
2023-03-06T04:25:46.921Z,7.17
2023-03-06T04:28:15.289Z,6.57
2023-03-06T04:30:43.703Z,6.57
2023-03-06T04:33:13.296Z,6.63
2023-03-06T04:35:44.058Z,6.07
2023-03-06T04:38:13.931Z,6.40
2023-03-06T04:40:44.469Z,6.93
2023-03-06T04:43:13.417Z,5.73
2023-03-06T04:45:46.989Z,5.60
2023-03-06T04:48:22.678Z,6.33
2023-03-06T04:51:11.898Z,5.60
2023-03-06T04:53:39.766Z,5.30
2023-03-06T04:56:10.502Z,5.23
2023-03-06T04:58:38.746Z,5.90
2023-03-06T05:01:07.236Z,7.03
2023-03-06T05:03:36.869Z,4.70
2023-03-06T05:06:05.325Z,6.53
2023-03-06T05:08:39.082Z,5.70
2023-03-06T05:11:14.995Z,6.27
2023-03-06T05:13:43.016Z,6.90
2023-03-06T05:16:11.246Z,6.63
2023-03-06T05:18:43.640Z,6.47
2023-03-06T05:21:22.128Z,6.27
2023-03-06T05:23:52.740Z,7.17
2023-03-06T05:26:26.098Z,8.40
2023-03-06T05:28:55.321Z,7.17
2023-03-06T05:31:25.392Z,6.87
2023-03-06T05:33:55.032Z,6.00
2023-03-06T05:36:25.919Z,6.70
2023-03-06T05:38:57.646Z,6.73
2023-03-06T05:41:28.660Z,6.60
2023-03-06T05:44:03.130Z,6.73
2023-03-06T05:46:31.184Z,7.30
2023-03-06T05:49:01.301Z,5.50
2023-03-06T05:51:29.177Z,5.80
2023-03-06T05:53:58.162Z,7.03
2023-03-06T05:56:28.949Z,7.13
2023-03-06T05:58:58.962Z,7.00
2023-03-06T06:01:28.543Z,5.97
2023-03-06T06:03:56.617Z,6.23
2023-03-06T06:06:26.366Z,6.47
2023-03-06T06:08:56.993Z,6.70
2023-03-06T06:11:24.802Z,5.60
2023-03-06T06:13:53.929Z,6.93
2023-03-06T06:16:22.307Z,7.03
2023-03-06T06:18:50.356Z,7.13
2023-03-06T06:21:18.533Z,6.10
2023-03-06T06:24:07.939Z,5.70
2023-03-06T06:26:37.976Z,5.87
2023-03-06T06:29:14.969Z,6.40
2023-03-06T06:31:46.733Z,6.20
2023-03-06T06:34:15.344Z,6.33
2023-03-06T06:36:44.223Z,6.90
2023-03-06T06:39:20.576Z,7.10
2023-03-06T06:42:20.244Z,7.17
2023-03-06T06:44:40.187Z,6.10
2023-03-06T06:47:26.254Z,7.07
2023-03-06T06:49:57.712Z,7.53
2023-03-06T06:52:31.295Z,6.23
2023-03-06T06:55:03.501Z,7.27
2023-03-06T06:57:36.242Z,6.83
2023-03-06T07:00:06.335Z,7.63
2023-03-06T07:02:35.891Z,6.40
2023-03-06T07:05:12.524Z,6.70
2023-03-06T07:07:44.876Z,6.57
2023-03-06T07:10:20.750Z,7.10
2023-03-06T07:12:51.676Z,7.00
2023-03-06T07:15:20.261Z,5.80
2023-03-06T07:17:50.202Z,6.27
2023-03-06T07:20:22.392Z,7.17
2023-03-06T07:22:54.227Z,7.20
2023-03-06T07:25:24.197Z,6.57
2023-03-06T07:27:54.352Z,5.97
2023-03-06T07:30:25.750Z,6.53
2023-03-06T07:33:08.832Z,6.17
2023-03-06T07:35:37.494Z,5.70
2023-03-06T07:38:23.760Z,5.43
2023-03-06T07:40:53.792Z,5.80
2023-03-06T07:43:22.052Z,6.13
2023-03-06T07:45:57.995Z,6.00
2023-03-06T07:48:27.720Z,6.20
2023-03-06T07:51:01.399Z,5.33
2023-03-06T07:53:31.881Z,5.37
2023-03-06T07:56:04.822Z,5.83
2023-03-06T07:58:34.019Z,5.17
2023-03-06T08:01:05.359Z,5.17
2023-03-06T08:03:39.419Z,4.87
2023-03-06T08:06:11.527Z,3.80
2023-03-06T08:08:41.792Z,5.00
2023-03-06T08:11:12.700Z,5.37
2023-03-06T08:13:44.893Z,6.40
2023-03-06T08:16:13.580Z,5.60
2023-03-06T08:18:47.988Z,5.40
2023-03-06T08:21:19.234Z,4.50
2023-03-06T08:23:52.631Z,5.97
2023-03-06T08:26:23.732Z,5.30
2023-03-06T08:28:53.072Z,5.43
2023-03-06T08:31:28.103Z,6.27
2023-03-06T08:33:59.031Z,5.57
2023-03-06T08:36:27.571Z,5.40
2023-03-06T08:38:59.365Z,6.37
2023-03-06T08:41:32.175Z,5.50
2023-03-06T08:44:00.440Z,5.93
2023-03-06T08:46:30.809Z,6.03
2023-03-06T08:48:59.564Z,5.40
2023-03-06T08:51:30.491Z,6.40
2023-03-06T08:53:59.834Z,5.00
2023-03-06T08:56:32.252Z,6.07
2023-03-06T08:59:06.088Z,6.20
2023-03-06T09:01:36.812Z,5.50
2023-03-06T09:04:10.111Z,6.43
2023-03-06T09:06:40.532Z,5.57
2023-03-06T09:09:14.794Z,5.57
2023-03-06T09:11:44.952Z,5.60
2023-03-06T09:14:14.833Z,5.50
2023-03-06T09:16:42.882Z,5.57
2023-03-06T09:19:11.939Z,6.33
2023-03-06T09:21:44.857Z,5.40
2023-03-06T09:24:12.884Z,5.60
2023-03-06T09:26:46.070Z,6.47
2023-03-06T09:29:21.032Z,6.73
2023-03-06T09:34:42.100Z,6.20
2023-03-06T09:37:10.027Z,6.30
2023-03-06T09:39:38.899Z,6.13
2023-03-06T09:42:08.480Z,5.83
2023-03-06T09:44:43.313Z,5.53
2023-03-06T09:47:32.161Z,6.10
2023-03-06T09:50:17.633Z,5.80
2023-03-06T09:52:50.445Z,5.83
2023-03-06T09:55:20.077Z,4.97
2023-03-06T09:57:57.630Z,5.90
2023-03-06T10:00:31.877Z,5.83
2023-03-06T10:03:13.515Z,5.70
2023-03-06T10:05:43.930Z,6.17
2023-03-06T10:08:21.132Z,6.30
2023-03-06T10:10:52.580Z,5.90
2023-03-06T10:13:28.797Z,6.30
2023-03-06T10:16:06.446Z,6.30
2023-03-06T10:18:38.582Z,6.83
2023-03-06T10:21:22.664Z,7.80
2023-03-06T10:23:55.479Z,7.00
2023-03-06T10:26:27.773Z,6.47
2023-03-06T10:29:24.059Z,5.97
2023-03-06T10:32:04.661Z,5.30
2023-03-06T10:34:35.808Z,5.27
2023-03-06T10:37:13.856Z,5.70
2023-03-06T10:39:41.741Z,5.50
2023-03-06T10:42:10.218Z,5.90
2023-03-06T10:44:38.399Z,6.17
2023-03-06T10:47:33.049Z,7.13
2023-03-06T10:50:08.409Z,5.90
2023-03-06T10:52:39.242Z,6.23
2023-03-06T10:55:29.540Z,6.03
2023-03-06T10:57:57.741Z,5.50
2023-03-06T11:00:36.727Z,5.60
2023-03-06T11:03:24.849Z,5.77
2023-03-06T11:06:09.164Z,6.23
2023-03-06T11:08:39.937Z,7.27
2023-03-06T11:11:09.845Z,6.07
2023-03-06T11:13:39.597Z,5.20
2023-03-06T11:16:15.145Z,4.30
2023-03-06T11:18:57.156Z,5.67
2023-03-06T11:21:31.451Z,4.53
2023-03-06T11:24:04.285Z,6.00
2023-03-06T11:26:37.722Z,5.60
2023-03-06T11:29:33.153Z,5.10
2023-03-06T11:32:07.837Z,4.73
2023-03-06T11:34:51.078Z,6.60
2023-03-06T11:37:27.015Z,4.73
2023-03-06T11:40:03.478Z,5.70
2023-03-06T11:42:34.715Z,5.83
2023-03-06T11:45:17.127Z,5.70
2023-03-06T11:47:48.274Z,5.17
2023-03-06T11:50:21.459Z,5.50
2023-03-06T11:52:53.346Z,5.23
2023-03-06T11:55:29.790Z,4.67
2023-03-06T11:58:17.939Z,5.33
2023-03-06T12:00:55.081Z,5.73
2023-03-06T12:03:46.634Z,5.33
2023-03-06T12:06:23.630Z,6.40
2023-03-06T12:09:04.890Z,5.40
2023-03-06T12:11:39.354Z,5.73
2023-03-06T12:14:23.293Z,5.17
2023-03-06T12:17:08.683Z,5.53
2023-03-06T12:19:50.078Z,4.93
2023-03-06T12:22:31.001Z,4.80
2023-03-06T12:25:11.374Z,4.47
2023-03-06T12:27:47.097Z,5.40
2023-03-06T12:30:27.600Z,5.13
2023-03-06T12:33:04.536Z,6.10
2023-03-06T12:35:54.219Z,5.57
2023-03-06T12:38:49.014Z,5.73
2023-03-06T12:41:29.903Z,5.43
2023-03-06T12:44:30.807Z,4.57
2023-03-06T12:47:01.074Z,5.07
2023-03-06T12:49:38.685Z,5.20
2023-03-06T12:52:08.830Z,4.73
2023-03-06T12:54:43.111Z,5.43
2023-03-06T12:57:16.480Z,4.87
2023-03-06T12:59:48.247Z,4.87
2023-03-06T13:02:41.643Z,5.63
2023-03-06T13:05:31.093Z,4.37
2023-03-06T13:08:16.278Z,4.40
2023-03-06T13:11:09.349Z,4.23
2023-03-06T13:13:46.720Z,5.00
2023-03-06T13:16:18.110Z,4.63
2023-03-06T13:18:51.885Z,5.83
2023-03-06T13:21:59.826Z,6.47
2023-03-06T13:24:29.041Z,5.03
2023-03-06T13:27:13.108Z,4.50
2023-03-06T13:30:07.667Z,5.40
2023-03-06T13:32:39.859Z,5.00
2023-03-06T13:35:48.782Z,5.50
2023-03-06T13:39:00.333Z,4.60
2023-03-06T13:42:02.197Z,5.10
2023-03-06T13:44:52.229Z,4.70
2023-03-06T13:47:45.046Z,4.97
2023-03-06T13:50:37.749Z,4.60
2023-03-06T13:53:33.067Z,5.23
2023-03-06T13:56:09.722Z,4.53
2023-03-06T13:59:00.733Z,5.63
2023-03-06T14:01:41.324Z,5.90
2023-03-06T14:04:34.938Z,5.10
2023-03-06T14:07:10.710Z,4.40
2023-03-06T14:09:42.294Z,5.17
2023-03-06T14:12:23.772Z,5.53
2023-03-06T14:14:55.017Z,5.70
2023-03-06T14:17:39.243Z,5.60
2023-03-06T14:20:15.441Z,4.90
2023-03-06T14:22:48.917Z,5.33
2023-03-06T14:25:19.872Z,4.40
2023-03-06T14:27:51.416Z,6.50
2023-03-06T14:30:25.188Z,5.43
2023-03-06T14:32:57.036Z,4.47
2023-03-06T14:35:31.798Z,5.13
2023-03-06T14:38:05.118Z,4.20
2023-03-06T14:40:35.470Z,4.50
2023-03-06T14:43:22.629Z,5.10
2023-03-06T14:45:59.145Z,4.53
2023-03-06T14:48:41.885Z,5.03
2023-03-06T14:51:19.924Z,5.80
2023-03-06T14:53:50.451Z,5.03
2023-03-06T14:56:22.319Z,5.53
2023-03-06T14:58:55.106Z,4.93
2023-03-06T15:01:28.050Z,4.60
2023-03-06T15:04:02.317Z,5.33
2023-03-06T15:06:35.086Z,5.97
2023-03-06T15:09:07.923Z,5.67
2023-03-06T15:12:04.823Z,6.33
2023-03-06T15:14:40.015Z,5.60
2023-03-06T15:17:23.475Z,5.67
2023-03-06T15:19:55.562Z,4.93
2023-03-06T15:22:37.475Z,5.00
2023-03-06T15:25:27.894Z,5.37
2023-03-06T15:27:59.998Z,5.80
2023-03-06T15:30:33.104Z,4.93
2023-03-06T15:33:11.943Z,5.03
2023-03-06T15:35:43.824Z,4.90
2023-03-06T15:38:27.594Z,6.67
2023-03-06T15:40:57.065Z,6.97
2023-03-06T15:43:28.021Z,5.53
2023-03-06T15:46:01.024Z,5.73
2023-03-06T15:48:29.429Z,5.80
2023-03-06T15:51:15.637Z,7.40
2023-03-06T15:53:43.783Z,5.00
2023-03-06T15:56:14.678Z,6.10
2023-03-06T15:58:47.491Z,6.07
2023-03-06T16:01:18.617Z,5.87
2023-03-06T16:03:48.263Z,6.60
2023-03-06T16:06:23.696Z,5.63
2023-03-06T16:08:52.084Z,6.27
2023-03-06T16:11:29.964Z,5.37
2023-03-06T16:14:03.170Z,5.07
2023-03-06T16:16:51.699Z,6.37
2023-03-06T16:19:27.598Z,5.80
2023-03-06T16:21:59.569Z,4.80
2023-03-06T16:24:27.791Z,6.57
2023-03-06T16:27:00.188Z,6.33
2023-03-06T16:29:33.475Z,5.23
2023-03-06T16:32:02.355Z,6.00
2023-03-06T16:34:34.967Z,5.70
2023-03-06T16:37:04.657Z,6.83
2023-03-06T16:39:38.210Z,6.80
2023-03-06T16:42:09.195Z,7.17
2023-03-06T16:44:38.518Z,5.63
2023-03-06T16:47:07.704Z,7.80
2023-03-06T16:49:38.216Z,7.40
2023-03-06T16:52:10.385Z,7.20
2023-03-06T16:54:38.329Z,7.80
2023-03-06T16:57:06.144Z,7.13
2023-03-06T16:59:34.018Z,6.23
2023-03-06T17:04:57.061Z,6.50
2023-03-06T17:07:26.247Z,6.00
2023-03-06T17:09:56.856Z,5.50
2023-03-06T17:12:38.019Z,5.93
2023-03-06T17:15:08.256Z,7.10
2023-03-06T17:17:36.402Z,5.53
2023-03-06T17:20:07.372Z,7.13
2023-03-06T17:22:38.761Z,6.40
2023-03-06T17:25:12.270Z,5.40
2023-03-06T17:27:41.346Z,6.53
2023-03-06T17:30:10.039Z,6.17
2023-03-06T17:32:40.936Z,7.37
2023-03-06T17:35:15.022Z,7.10
2023-03-06T17:37:45.733Z,8.40
2023-03-06T17:40:15.570Z,7.90
2023-03-06T17:42:44.624Z,7.10
2023-03-06T17:45:12.977Z,5.80
2023-03-06T17:47:44.713Z,7.70
2023-03-06T17:50:13.000Z,6.83
2023-03-06T17:52:40.905Z,7.60
2023-03-06T17:55:12.939Z,5.60
2023-03-06T17:57:40.977Z,6.60
2023-03-06T18:00:12.995Z,7.37
2023-03-06T18:02:40.898Z,8.03
2023-03-06T18:05:12.711Z,6.70
2023-03-06T18:07:41.402Z,7.53
2023-03-06T18:10:14.638Z,8.53
2023-03-06T18:12:44.215Z,8.70
2023-03-06T18:15:13.201Z,7.70
2023-03-06T18:17:41.054Z,8.53
2023-03-06T18:20:12.247Z,8.20
2023-03-06T18:22:42.289Z,7.63
2023-03-06T18:25:11.891Z,8.20
2023-03-06T18:27:42.434Z,8.03
2023-03-06T18:30:11.916Z,8.50
2023-03-06T18:32:42.361Z,8.00
2023-03-06T18:35:10.817Z,6.60
2023-03-06T18:37:39.195Z,5.50
2023-03-06T18:40:08.340Z,6.13
2023-03-06T18:42:40.273Z,5.70
2023-03-06T18:45:09.406Z,6.80
2023-03-06T18:47:37.423Z,7.33
2023-03-06T18:50:07.684Z,7.13
2023-03-06T18:52:41.322Z,6.87
2023-03-06T18:55:10.132Z,7.07
2023-03-06T18:57:37.914Z,7.00
2023-03-06T19:00:11.747Z,7.30
2023-03-06T19:02:47.829Z,6.30
2023-03-06T19:05:19.421Z,7.20
2023-03-06T19:07:51.290Z,7.33
2023-03-06T19:10:20.629Z,7.10
2023-03-06T19:12:48.504Z,6.33
2023-03-06T19:15:18.048Z,7.03
2023-03-06T19:17:45.897Z,8.47
2023-03-06T19:20:16.056Z,8.00
2023-03-06T19:22:43.977Z,6.30
2023-03-06T19:25:11.877Z,6.90
2023-03-06T19:27:39.881Z,7.40
2023-03-06T19:30:09.453Z,7.53
2023-03-06T19:32:38.786Z,5.50
2023-03-06T19:35:07.530Z,6.60
2023-03-06T19:37:36.562Z,6.20
2023-03-06T19:40:10.810Z,6.17
2023-03-06T19:42:40.971Z,5.93
2023-03-06T19:45:12.674Z,5.83
2023-03-06T19:47:42.392Z,6.40
2023-03-06T19:50:11.541Z,6.67
2023-03-06T19:52:43.152Z,6.93
2023-03-06T19:55:14.704Z,7.00
2023-03-06T19:57:50.869Z,7.10
2023-03-06T20:00:20.991Z,6.70
2023-03-06T20:02:53.042Z,7.00
2023-03-06T20:05:23.322Z,7.13
2023-03-06T20:07:55.001Z,7.13
2023-03-06T20:10:28.941Z,8.10
2023-03-06T20:13:00.983Z,10.93
2023-03-06T20:15:31.495Z,11.23
2023-03-06T20:18:00.742Z,12.30
2023-03-06T20:20:28.840Z,8.30
2023-03-06T20:23:02.529Z,8.70
2023-03-06T20:25:32.784Z,11.43
2023-03-06T20:28:04.506Z,10.43
2023-03-06T20:30:39.639Z,8.10
2023-03-06T20:33:10.577Z,8.23
2023-03-06T20:35:41.187Z,9.23
2023-03-06T20:38:17.934Z,6.50
2023-03-06T20:40:54.660Z,7.80
2023-03-06T20:43:23.737Z,8.97
2023-03-06T20:45:59.320Z,7.30
2023-03-06T20:48:31.765Z,6.60
2023-03-06T20:51:02.814Z,7.57
2023-03-06T20:53:35.086Z,7.30
2023-03-06T20:56:03.294Z,7.90
2023-03-06T20:58:33.572Z,6.67
2023-03-06T21:01:05.509Z,6.73
2023-03-06T21:03:35.173Z,6.23
2023-03-06T21:06:04.996Z,5.73
2023-03-06T21:08:32.791Z,6.20
2023-03-06T21:11:02.253Z,6.83
2023-03-06T21:13:33.212Z,5.53
2023-03-06T21:16:03.953Z,6.37
2023-03-06T21:18:31.790Z,5.93
2023-03-06T21:21:01.105Z,6.43
2023-03-06T21:23:29.151Z,6.03
2023-03-06T21:25:57.001Z,5.80
2023-03-06T21:28:27.097Z,5.70
2023-03-06T21:30:57.260Z,6.40
2023-03-06T21:33:25.128Z,6.20
2023-03-06T21:35:55.497Z,5.50
2023-03-06T21:38:24.832Z,5.70
2023-03-06T21:40:52.672Z,6.07
2023-03-06T21:43:29.534Z,5.83
2023-03-06T21:45:59.602Z,5.90
2023-03-06T21:48:30.331Z,5.43
2023-03-06T21:51:10.433Z,6.50
2023-03-06T21:53:42.505Z,6.13
2023-03-06T21:56:10.911Z,5.70
2023-03-06T21:58:43.483Z,5.30
2023-03-06T22:01:17.743Z,6.10
2023-03-06T22:03:45.838Z,6.40
2023-03-06T22:06:21.717Z,5.70
2023-03-06T22:08:53.746Z,5.93
2023-03-06T22:11:22.766Z,6.60
2023-03-06T22:13:57.917Z,7.53
2023-03-06T22:16:28.124Z,6.40
2023-03-06T22:19:05.512Z,6.17
2023-03-06T22:21:38.583Z,5.93
2023-03-06T22:24:08.432Z,6.83
2023-03-06T22:26:54.128Z,6.97
2023-03-06T22:29:22.295Z,6.10
2023-03-06T22:31:53.206Z,6.53
2023-03-06T22:34:22.606Z,5.13
2023-03-06T22:36:55.440Z,6.63
2023-03-06T22:39:24.614Z,7.40
2023-03-06T22:41:56.541Z,5.53
2023-03-06T22:44:26.958Z,5.97
2023-03-06T22:46:58.927Z,5.20
2023-03-06T22:49:29.829Z,6.30
2023-03-06T22:52:00.174Z,6.00
2023-03-06T22:54:30.977Z,5.57
2023-03-06T22:56:58.858Z,6.10
2023-03-06T22:59:29.766Z,6.40
2023-03-06T23:01:57.567Z,7.57
2023-03-06T23:04:25.456Z,4.90
2023-03-06T23:06:53.309Z,7.10
2023-03-06T23:09:23.523Z,6.40
2023-03-06T23:11:58.729Z,6.50
2023-03-06T23:14:32.441Z,5.27
2023-03-06T23:17:02.198Z,5.70
2023-03-06T23:19:32.904Z,6.60
2023-03-06T23:22:00.796Z,5.43
2023-03-06T23:24:35.316Z,6.10
2023-03-06T23:27:11.049Z,6.63
2023-03-06T23:29:38.975Z,6.30
2023-03-06T23:32:11.233Z,6.67
2023-03-06T23:34:39.115Z,5.80
2023-03-06T23:37:08.197Z,7.53
2023-03-06T23:39:38.871Z,6.23
2023-03-06T23:42:09.394Z,5.43
2023-03-06T23:44:37.236Z,6.53
2023-03-06T23:47:05.205Z,6.67
2023-03-06T23:49:33.183Z,5.40
2023-03-06T23:52:01.235Z,4.40
2023-03-06T23:54:29.236Z,6.87
2023-03-06T23:57:04.171Z,5.83
2023-03-06T23:59:33.601Z,6.07
